createdAt,value
2023-02-05T00:00:27.260Z,972.21
2023-02-05T00:01:27.235Z,972.2
2023-02-05T00:02:27.302Z,972.16
2023-02-05T00:03:27.254Z,972.19
2023-02-05T00:04:27.171Z,972.18
2023-02-05T00:05:27.174Z,972.21
2023-02-05T00:06:27.133Z,972.16
2023-02-05T00:07:27.114Z,972.19
2023-02-05T00:08:27.086Z,972.17
2023-02-05T00:09:27.064Z,972.18
2023-02-05T00:10:27.051Z,972.17
2023-02-05T00:11:27.022Z,972.2
2023-02-05T00:12:27.007Z,972.13
2023-02-05T00:13:26.979Z,972.12
2023-02-05T00:14:26.959Z,972.15
2023-02-05T00:15:26.939Z,972.13
2023-02-05T00:16:26.957Z,972.12
2023-02-05T00:17:26.894Z,972.14
2023-02-05T00:18:26.877Z,972.13
2023-02-05T00:19:26.851Z,972.15
2023-02-05T00:20:26.829Z,972.13
2023-02-05T00:21:26.869Z,972.16
2023-02-05T00:22:26.788Z,972.11
2023-02-05T00:23:26.773Z,972.09
2023-02-05T00:24:26.744Z,972.09
2023-02-05T00:25:26.726Z,972.08
2023-02-05T00:26:26.707Z,972.09
2023-02-05T00:27:26.683Z,972.05
2023-02-05T00:28:26.663Z,972.07
2023-02-05T00:29:26.644Z,972.07
2023-02-05T00:30:26.704Z,972.07
2023-02-05T00:31:26.752Z,972.08
2023-02-05T00:32:26.572Z,972.05
2023-02-05T00:33:26.553Z,972.06
2023-02-05T00:34:26.529Z,972.05
2023-02-05T00:35:26.514Z,972.06
2023-02-05T00:36:26.506Z,972.04
2023-02-05T00:37:26.491Z,972.07
2023-02-05T00:38:26.445Z,972.09
2023-02-05T00:39:26.426Z,972.07
2023-02-05T00:40:26.401Z,972.12
2023-02-05T00:41:26.379Z,972.1
2023-02-05T00:42:26.359Z,972.04
2023-02-05T00:43:26.338Z,971.99
2023-02-05T00:44:26.314Z,972.04
2023-02-05T00:45:26.295Z,972.04
2023-02-05T00:46:26.299Z,972.04
2023-02-05T00:47:26.254Z,972.09
2023-02-05T00:48:26.232Z,972.08
2023-02-05T00:49:26.207Z,972.03
2023-02-05T00:50:26.185Z,972.06
2023-02-05T00:51:26.167Z,972.07
2023-02-05T00:52:26.159Z,972.08
2023-02-05T00:53:26.149Z,972.1
2023-02-05T00:54:26.095Z,972.07
2023-02-05T00:55:26.075Z,972.1
2023-02-05T00:56:26.058Z,972.13
2023-02-05T00:57:26.037Z,972.19
2023-02-05T00:58:26.009Z,972.18
2023-02-05T00:59:25.990Z,972.18
2023-02-05T01:00:25.967Z,972.24
2023-02-05T01:01:25.973Z,972.2
2023-02-05T01:02:25.979Z,972.24
2023-02-05T01:03:25.903Z,972.23
2023-02-05T01:04:25.885Z,972.21
2023-02-05T01:05:25.863Z,972.25
2023-02-05T01:06:25.840Z,972.22
2023-02-05T01:07:25.818Z,972.19
2023-02-05T01:08:25.795Z,972.25
2023-02-05T01:09:25.804Z,972.2
2023-02-05T01:10:25.753Z,972.19
2023-02-05T01:11:25.730Z,972.23
2023-02-05T01:12:25.710Z,972.2
2023-02-05T01:13:25.690Z,972.21
2023-02-05T01:14:25.668Z,972.18
2023-02-05T01:15:25.643Z,972.19
2023-02-05T01:16:25.624Z,972.17
2023-02-05T01:17:25.599Z,972.15
2023-02-05T01:18:25.582Z,972.16
2023-02-05T01:19:25.557Z,972.14
2023-02-05T01:20:25.541Z,972.13
2023-02-05T01:21:25.517Z,972.16
2023-02-05T01:22:25.496Z,972.1
2023-02-05T01:23:25.474Z,972.08
2023-02-05T01:24:25.452Z,972.04
2023-02-05T01:25:25.450Z,972.08
2023-02-05T01:26:25.410Z,972.04
2023-02-05T01:27:25.385Z,972.01
2023-02-05T01:28:25.363Z,972.01
2023-02-05T01:29:25.344Z,971.95
2023-02-05T01:30:25.335Z,971.94
2023-02-05T01:31:25.423Z,971.96
2023-02-05T01:32:25.275Z,971.94
2023-02-05T01:33:25.255Z,972
2023-02-05T01:34:25.233Z,971.96
2023-02-05T01:35:25.224Z,971.95
2023-02-05T01:36:25.193Z,971.98
2023-02-05T01:37:25.167Z,971.97
2023-02-05T01:38:25.143Z,971.92
2023-02-05T01:39:25.121Z,971.93
2023-02-05T01:40:25.100Z,971.91
2023-02-05T01:41:25.102Z,971.94
2023-02-05T01:42:25.057Z,971.9
2023-02-05T01:43:25.032Z,971.92
2023-02-05T01:44:25.035Z,971.94
2023-02-05T01:45:24.987Z,971.91
2023-02-05T01:46:25.009Z,971.87
2023-02-05T01:47:24.941Z,971.86
2023-02-05T01:48:24.920Z,971.83
2023-02-05T01:49:25.671Z,971.82
2023-02-05T01:50:25.651Z,971.82
2023-02-05T01:51:25.627Z,971.78
2023-02-05T01:52:25.609Z,971.79
2023-02-05T01:53:25.583Z,971.72
2023-02-05T01:54:25.561Z,971.75
2023-02-05T01:55:25.540Z,971.76
2023-02-05T01:56:25.517Z,971.75
2023-02-05T01:57:25.518Z,971.7
2023-02-05T01:58:25.480Z,971.69
2023-02-05T01:59:25.449Z,971.65
2023-02-05T02:00:25.426Z,971.58
2023-02-05T02:01:25.460Z,971.64
2023-02-05T02:02:25.384Z,971.56
2023-02-05T02:03:25.363Z,971.59
2023-02-05T02:04:25.339Z,971.61
2023-02-05T02:05:25.390Z,971.58
2023-02-05T02:06:25.296Z,971.54
2023-02-05T02:07:25.278Z,971.57
2023-02-05T02:08:25.252Z,971.52
2023-02-05T02:09:25.971Z,971.47
2023-02-05T02:10:25.943Z,971.43
2023-02-05T02:11:25.938Z,971.46
2023-02-05T02:12:25.900Z,971.44
2023-02-05T02:13:25.909Z,971.42
2023-02-05T02:14:25.858Z,971.41
2023-02-05T02:15:25.837Z,971.35
2023-02-05T02:16:25.898Z,971.38
2023-02-05T02:17:25.793Z,971.31
2023-02-05T02:18:25.769Z,971.36
2023-02-05T02:19:25.749Z,971.3
2023-02-05T02:20:25.728Z,971.25
2023-02-05T02:21:25.702Z,971.23
2023-02-05T02:22:25.679Z,971.22
2023-02-05T02:23:25.661Z,971.18
2023-02-05T02:24:25.636Z,971.14
2023-02-05T02:25:25.614Z,971.13
2023-02-05T02:26:25.592Z,971.11
2023-02-05T02:27:25.572Z,971.11
2023-02-05T02:28:25.550Z,971.13
2023-02-05T02:29:25.551Z,971.17
2023-02-05T02:30:25.558Z,971.12
2023-02-05T02:31:25.547Z,971.1
2023-02-05T02:32:25.486Z,971.15
2023-02-05T02:33:25.437Z,971.11
2023-02-05T02:34:25.414Z,971.13
2023-02-05T02:35:25.399Z,971.1
2023-02-05T02:36:25.400Z,971.15
2023-02-05T02:37:25.366Z,971.14
2023-02-05T02:38:25.327Z,971.08
2023-02-05T02:39:25.309Z,971.06
2023-02-05T02:40:25.292Z,971.04
2023-02-05T02:41:25.258Z,970.97
2023-02-05T02:42:25.236Z,970.98
2023-02-05T02:43:25.232Z,971
2023-02-05T02:44:25.191Z,971.01
2023-02-05T02:45:25.195Z,971.01
2023-02-05T02:46:25.162Z,971.02
2023-02-05T02:47:25.130Z,970.92
2023-02-05T02:48:25.105Z,971
2023-02-05T02:49:25.085Z,970.92
2023-02-05T02:50:25.067Z,970.94
2023-02-05T02:51:25.040Z,970.95
2023-02-05T02:52:25.023Z,970.89
2023-02-05T02:53:25.002Z,970.89
2023-02-05T02:54:24.977Z,970.9
2023-02-05T02:55:24.952Z,970.87
2023-02-05T02:56:24.932Z,970.86
2023-02-05T02:57:24.908Z,970.83
2023-02-05T02:58:24.887Z,970.86
2023-02-05T02:59:24.864Z,970.81
2023-02-05T03:00:24.849Z,970.9
2023-02-05T03:01:24.845Z,970.93
2023-02-05T03:02:24.799Z,970.92
2023-02-05T03:03:24.797Z,970.95
2023-02-05T03:04:24.757Z,970.96
2023-02-05T03:05:24.734Z,970.96
2023-02-05T03:06:24.716Z,970.98
2023-02-05T03:07:24.697Z,971
2023-02-05T03:08:24.667Z,970.99
2023-02-05T03:09:24.644Z,971
2023-02-05T03:10:24.624Z,971.01
2023-02-05T03:11:24.602Z,970.99
2023-02-05T03:12:24.581Z,970.97
2023-02-05T03:13:24.556Z,970.96
2023-02-05T03:14:24.538Z,970.89
2023-02-05T03:15:24.524Z,970.88
2023-02-05T03:16:24.577Z,970.85
2023-02-05T03:17:24.494Z,970.84
2023-02-05T03:18:24.451Z,970.84
2023-02-05T03:19:24.428Z,970.87
2023-02-05T03:20:24.399Z,970.9
2023-02-05T03:21:24.376Z,970.88
2023-02-05T03:22:24.361Z,970.9
2023-02-05T03:23:24.338Z,970.88
2023-02-05T03:24:24.313Z,970.97
2023-02-05T03:25:24.288Z,970.93
2023-02-05T03:26:24.267Z,970.91
2023-02-05T03:27:24.244Z,970.86
2023-02-05T03:28:24.225Z,970.88
2023-02-05T03:29:24.198Z,970.91
2023-02-05T03:30:24.177Z,970.88
2023-02-05T03:31:24.183Z,970.89
2023-02-05T03:32:24.132Z,970.91
2023-02-05T03:49:39.767Z,970.86
2023-02-05T03:50:39.707Z,970.85
2023-02-05T03:51:39.685Z,970.85
2023-02-05T03:52:39.664Z,970.85
2023-02-05T03:53:40.180Z,970.83
2023-02-05T03:54:40.153Z,970.88
2023-02-05T03:55:40.131Z,970.82
2023-02-05T03:56:40.106Z,970.86
2023-02-05T03:57:40.083Z,970.85
2023-02-05T03:58:40.057Z,970.82
2023-02-05T03:59:40.038Z,970.8
2023-02-05T04:00:40.012Z,970.77
2023-02-05T04:01:39.990Z,970.76
2023-02-05T04:02:39.965Z,970.75
2023-02-05T04:03:39.944Z,970.71
2023-02-05T04:04:39.920Z,970.65
2023-02-05T04:05:39.935Z,970.66
2023-02-05T04:06:39.875Z,970.64
2023-02-05T04:07:39.857Z,970.63
2023-02-05T04:08:39.832Z,970.68
2023-02-05T04:09:39.809Z,970.69
2023-02-05T04:10:39.784Z,970.68
2023-02-05T04:11:39.777Z,970.73
2023-02-05T04:12:39.742Z,970.75
2023-02-05T04:13:39.718Z,970.73
2023-02-05T04:14:39.697Z,970.76
2023-02-05T04:15:39.677Z,970.73
2023-02-05T04:16:39.670Z,970.72
2023-02-05T04:17:39.630Z,970.72
2023-02-05T04:18:39.608Z,970.71
2023-02-05T04:19:39.584Z,970.75
2023-02-05T04:20:39.566Z,970.77
2023-02-05T04:21:39.572Z,970.76
2023-02-05T04:22:39.517Z,970.77
2023-02-05T04:23:39.694Z,970.76
2023-02-05T04:24:39.472Z,970.76
2023-02-05T04:25:39.462Z,970.78
2023-02-05T04:26:39.428Z,970.78
2023-02-05T04:27:39.418Z,970.77
2023-02-05T04:28:39.387Z,970.79
2023-02-05T04:29:39.366Z,970.82
2023-02-05T04:30:39.481Z,970.75
2023-02-05T04:31:39.360Z,970.81
2023-02-05T04:32:39.306Z,970.76
2023-02-05T04:33:39.281Z,970.73
2023-02-05T04:34:39.257Z,970.75
2023-02-05T04:35:39.261Z,970.71
2023-02-05T04:36:39.218Z,970.71
2023-02-05T04:37:39.222Z,970.73
2023-02-05T04:38:39.170Z,970.79
2023-02-05T04:39:39.152Z,970.82
2023-02-05T04:40:39.130Z,970.83
2023-02-05T04:41:39.104Z,970.8
2023-02-05T04:42:39.085Z,970.81
2023-02-05T04:43:39.061Z,970.88
2023-02-05T04:44:39.043Z,970.89
2023-02-05T04:45:39.048Z,970.91
2023-02-05T04:46:39.002Z,970.92
2023-02-05T04:47:39.033Z,970.98
2023-02-05T04:48:38.959Z,970.9
2023-02-05T04:49:38.934Z,970.96
2023-02-05T04:50:38.911Z,970.94
2023-02-05T04:51:38.887Z,970.98
2023-02-05T04:52:38.873Z,970.92
2023-02-05T04:53:38.868Z,970.98
2023-02-05T04:54:38.825Z,970.96
2023-02-05T04:55:38.806Z,970.94
2023-02-05T04:56:38.780Z,970.96
2023-02-05T04:57:38.762Z,970.9
2023-02-05T04:58:38.742Z,970.89
2023-02-05T04:59:38.713Z,970.9
2023-02-05T05:00:38.695Z,970.96
2023-02-05T05:01:38.671Z,970.94
2023-02-05T05:02:38.685Z,970.94
2023-02-05T05:03:38.626Z,970.92
2023-02-05T05:04:38.607Z,970.9
2023-02-05T05:05:38.582Z,970.86
2023-02-05T05:06:38.562Z,970.85
2023-02-05T05:07:38.538Z,970.84
2023-02-05T05:08:38.529Z,970.91
2023-02-05T05:09:38.523Z,970.95
2023-02-05T05:10:38.478Z,970.97
2023-02-05T05:11:39.033Z,971
2023-02-05T05:12:39.014Z,970.97
2023-02-05T05:13:38.991Z,971.02
2023-02-05T05:14:38.989Z,970.96
2023-02-05T05:15:38.991Z,970.96
2023-02-05T05:16:38.924Z,970.95
2023-02-05T05:17:38.901Z,970.95
2023-02-05T05:18:38.882Z,970.94
2023-02-05T05:19:38.864Z,970.94
2023-02-05T05:20:38.839Z,970.97
2023-02-05T05:21:38.816Z,971.02
2023-02-05T05:22:38.805Z,971.04
2023-02-05T05:23:38.785Z,970.98
2023-02-05T05:24:38.751Z,971.04
2023-02-05T05:25:38.754Z,971.05
2023-02-05T05:26:38.715Z,970.99
2023-02-05T05:27:38.683Z,971.04
2023-02-05T05:28:38.676Z,971.01
2023-02-05T05:29:38.639Z,971.04
2023-02-05T05:30:38.619Z,971.01
2023-02-05T05:31:38.596Z,971.02
2023-02-05T05:32:38.576Z,971.01
2023-02-05T05:33:38.562Z,971.04
2023-02-05T05:34:38.530Z,971.04
2023-02-05T05:35:38.510Z,971.02
2023-02-05T05:36:38.488Z,971.01
2023-02-05T05:37:38.477Z,971.05
2023-02-05T05:38:38.447Z,971.03
2023-02-05T05:39:39.172Z,971.04
2023-02-05T05:40:39.149Z,971.06
2023-02-05T05:41:39.156Z,971.09
2023-02-05T05:42:39.109Z,971.07
2023-02-05T05:43:39.085Z,971.05
2023-02-05T05:44:39.062Z,971.02
2023-02-05T05:45:39.043Z,970.98
2023-02-05T05:46:39.020Z,970.99
2023-02-05T05:47:39.004Z,970.93
2023-02-05T05:48:38.974Z,970.93
2023-02-05T05:49:38.954Z,970.85
2023-02-05T05:50:38.940Z,970.84
2023-02-05T05:51:38.938Z,970.88
2023-02-05T05:52:38.886Z,970.88
2023-02-05T05:53:38.865Z,970.9
2023-02-05T05:54:38.842Z,970.95
2023-02-05T05:55:38.826Z,970.96
2023-02-05T05:56:38.796Z,970.96
2023-02-05T05:57:38.800Z,971.01
2023-02-05T05:58:38.753Z,971.03
2023-02-05T05:59:38.748Z,971.01
2023-02-05T06:00:38.707Z,971.09
2023-02-05T06:01:38.687Z,971.07
2023-02-05T06:02:38.721Z,971.09
2023-02-05T06:03:38.643Z,971.07
2023-02-05T06:04:38.678Z,971.11
2023-02-05T06:05:38.602Z,971.09
2023-02-05T06:06:38.575Z,971.1
2023-02-05T06:07:38.552Z,971.1
2023-02-05T06:08:38.529Z,971.1
2023-02-05T06:09:38.507Z,971.11
2023-02-05T06:10:38.493Z,971.1
2023-02-05T06:11:38.463Z,971.11
2023-02-05T06:12:38.442Z,971.09
2023-02-05T06:13:38.452Z,971.08
2023-02-05T06:14:38.406Z,971.03
2023-02-05T06:15:38.871Z,971.03
2023-02-05T06:16:38.789Z,971.01
2023-02-05T06:17:38.766Z,970.96
2023-02-05T06:18:38.742Z,970.91
2023-02-05T06:19:38.722Z,970.98
2023-02-05T06:20:38.699Z,971
2023-02-05T06:21:38.682Z,970.98
2023-02-05T06:22:38.657Z,971
2023-02-05T06:23:38.639Z,971
2023-02-05T06:24:38.612Z,970.96
2023-02-05T06:25:38.586Z,970.93
2023-02-05T06:26:38.566Z,970.95
2023-02-05T06:27:38.545Z,970.98
2023-02-05T06:28:38.529Z,970.99
2023-02-05T06:29:38.525Z,971
2023-02-05T06:30:38.527Z,971.03
2023-02-05T06:31:38.574Z,971.02
2023-02-05T06:32:38.470Z,971
2023-02-05T06:33:38.411Z,970.94
2023-02-05T06:34:38.392Z,970.95
2023-02-05T06:35:38.369Z,970.87
2023-02-05T06:36:38.349Z,970.85
2023-02-05T06:37:46.986Z,970.87
2023-02-05T06:38:38.306Z,970.88
2023-02-05T06:39:38.279Z,970.89
2023-02-05T06:40:38.259Z,970.91
2023-02-05T06:41:38.240Z,970.92
2023-02-05T06:42:38.213Z,970.86
2023-02-05T06:43:38.192Z,970.87
2023-02-05T06:44:38.169Z,970.81
2023-02-05T06:45:38.175Z,970.89
2023-02-05T06:46:38.165Z,970.87
2023-02-05T06:47:38.103Z,970.91
2023-02-05T06:48:38.080Z,970.92
2023-02-05T06:49:38.058Z,970.86
2023-02-05T06:50:38.036Z,970.89
2023-02-05T06:51:38.014Z,970.84
2023-02-05T06:52:37.992Z,970.84
2023-02-05T06:53:37.990Z,970.81
2023-02-05T06:54:37.949Z,970.82
2023-02-05T06:55:37.924Z,970.82
2023-02-05T06:56:37.909Z,970.76
2023-02-05T06:57:37.888Z,970.8
2023-02-05T06:58:37.862Z,970.76
2023-02-05T06:59:37.835Z,970.79
2023-02-05T07:00:37.820Z,970.72
2023-02-05T07:01:37.927Z,970.76
2023-02-05T07:02:37.799Z,970.77
2023-02-05T07:03:37.752Z,970.7
2023-02-05T07:04:37.729Z,970.72
2023-02-05T07:05:37.705Z,970.71
2023-02-05T07:06:37.690Z,970.73
2023-02-05T07:07:37.677Z,970.76
2023-02-05T07:08:37.642Z,970.77
2023-02-05T07:09:37.619Z,970.82
2023-02-05T07:10:37.597Z,970.84
2023-02-05T07:11:37.577Z,970.9
2023-02-05T07:12:37.554Z,970.9
2023-02-05T07:13:37.532Z,970.93
2023-02-05T07:14:37.510Z,970.92
2023-02-05T07:15:37.748Z,970.9
2023-02-05T07:16:37.464Z,970.88
2023-02-05T07:17:37.540Z,970.88
2023-02-05T07:18:37.422Z,970.89
2023-02-05T07:19:37.404Z,970.91
2023-02-05T07:20:37.378Z,970.9
2023-02-05T07:21:37.356Z,970.95
2023-02-05T07:22:37.333Z,970.98
2023-02-05T07:23:37.318Z,970.96
2023-02-05T07:24:37.290Z,970.97
2023-02-05T07:25:37.269Z,971.03
2023-02-05T07:26:37.244Z,971.02
2023-02-05T07:27:37.228Z,971.01
2023-02-05T07:28:37.204Z,971
2023-02-05T07:29:37.187Z,971.01
2023-02-05T07:30:37.168Z,970.96
2023-02-05T07:31:37.198Z,970.93
2023-02-05T07:32:37.124Z,970.94
2023-02-05T07:33:37.157Z,970.89
2023-02-05T07:34:37.080Z,970.93
2023-02-05T07:35:37.130Z,970.94
2023-02-05T07:36:37.025Z,970.89
2023-02-05T07:37:37.004Z,970.95
2023-02-05T07:38:36.981Z,970.96
2023-02-05T07:39:36.959Z,970.99
2023-02-05T07:40:36.936Z,970.95
2023-02-05T07:41:36.913Z,971.02
2023-02-05T07:42:36.891Z,970.96
2023-02-05T07:43:36.869Z,970.96
2023-02-05T07:44:36.847Z,971
2023-02-05T07:45:37.039Z,970.97
2023-02-05T07:46:36.812Z,970.93
2023-02-05T07:47:36.794Z,970.96
2023-02-05T07:48:36.755Z,970.95
2023-02-05T07:49:36.768Z,970.89
2023-02-05T07:50:36.724Z,970.88
2023-02-05T07:51:36.691Z,970.88
2023-02-05T07:52:36.667Z,970.88
2023-02-05T07:53:36.654Z,970.9
2023-02-05T07:54:36.632Z,970.86
2023-02-05T07:55:36.781Z,970.87
2023-02-05T07:56:36.579Z,970.82
2023-02-05T07:57:36.560Z,970.85
2023-02-05T07:58:36.535Z,970.89
2023-02-05T07:59:36.517Z,970.85
2023-02-05T08:00:36.491Z,970.83
2023-02-05T08:01:36.471Z,970.77
2023-02-05T08:02:36.456Z,970.81
2023-02-05T08:03:36.450Z,970.82
2023-02-05T08:04:36.501Z,970.86
2023-02-05T08:05:36.637Z,970.79
2023-02-05T08:06:36.363Z,970.77
2023-02-05T08:07:36.340Z,970.79
2023-02-05T08:08:36.318Z,970.8
2023-02-05T08:09:36.298Z,970.81
2023-02-05T08:10:36.279Z,970.82
2023-02-05T08:11:36.257Z,970.79
2023-02-05T08:12:36.232Z,970.78
2023-02-05T08:13:36.209Z,970.78
2023-02-05T08:14:36.191Z,970.7
2023-02-05T08:15:36.277Z,970.67
2023-02-05T08:16:36.149Z,970.63
2023-02-05T08:17:36.124Z,970.6
2023-02-05T08:18:36.404Z,970.6
2023-02-05T08:19:36.381Z,970.59
2023-02-05T08:20:36.361Z,970.52
2023-02-05T08:21:36.365Z,970.62
2023-02-05T08:22:36.318Z,970.59
2023-02-05T08:23:36.311Z,970.64
2023-02-05T08:24:36.277Z,970.59
2023-02-05T08:25:36.470Z,970.61
2023-02-05T08:26:36.231Z,970.61
2023-02-05T08:27:36.209Z,970.64
2023-02-05T08:28:36.201Z,970.6
2023-02-05T08:29:36.173Z,970.59
2023-02-05T08:30:36.155Z,970.62
2023-02-05T08:31:36.160Z,970.64
2023-02-05T08:32:36.105Z,970.64
2023-02-05T08:33:36.083Z,970.61
2023-02-05T08:34:36.066Z,970.54
2023-02-05T08:35:36.356Z,970.5
2023-02-05T08:36:36.023Z,970.45
2023-02-05T08:37:36.026Z,970.43
2023-02-05T08:38:35.991Z,970.41
2023-02-05T08:39:35.958Z,970.47
2023-02-05T08:40:35.940Z,970.42
2023-02-05T08:41:35.913Z,970.37
2023-02-05T08:42:35.901Z,970.39
2023-02-05T08:43:35.876Z,970.36
2023-02-05T08:44:35.853Z,970.37
2023-02-05T08:45:36.292Z,970.4
2023-02-05T08:46:48.642Z,970.38
2023-02-05T08:47:35.793Z,970.32
2023-02-05T08:48:35.772Z,970.28
2023-02-05T08:49:37.482Z,970.3
2023-02-05T08:50:35.731Z,970.23
2023-02-05T08:51:35.707Z,970.21
2023-02-05T08:52:35.698Z,970.19
2023-02-05T08:53:35.694Z,970.18
2023-02-05T08:54:35.648Z,970.17
2023-02-05T08:55:35.812Z,970.2
2023-02-05T08:56:35.605Z,970.2
2023-02-05T08:57:35.598Z,970.2
2023-02-05T08:58:35.566Z,970.18
2023-02-05T08:59:35.546Z,970.18
2023-02-05T09:00:35.525Z,970.15
2023-02-05T09:01:35.511Z,970.2
2023-02-05T09:02:35.487Z,970.16
2023-02-05T09:03:35.467Z,970.13
2023-02-05T09:04:35.483Z,970.12
2023-02-05T09:05:35.729Z,970.07
2023-02-05T09:06:35.424Z,969.99
2023-02-05T09:07:35.388Z,970.01
2023-02-05T09:08:35.370Z,970.04
2023-02-05T09:09:35.375Z,970.04
2023-02-05T09:10:35.325Z,969.99
2023-02-05T09:11:35.309Z,969.96
2023-02-05T09:12:35.286Z,970
2023-02-05T09:13:35.266Z,969.94
2023-02-05T09:14:35.244Z,969.98
2023-02-05T09:15:35.547Z,969.96
2023-02-05T09:16:35.248Z,969.97
2023-02-05T09:17:35.187Z,969.99
2023-02-05T09:18:35.165Z,970.04
2023-02-05T09:19:35.151Z,970.02
2023-02-05T09:20:35.129Z,970.01
2023-02-05T09:21:35.110Z,969.95
2023-02-05T09:22:35.088Z,969.93
2023-02-05T09:23:35.071Z,969.9
2023-02-05T09:24:35.048Z,969.85
2023-02-05T09:25:35.324Z,969.83
2023-02-05T09:26:35.010Z,969.81
2023-02-05T09:27:35.001Z,969.81
2023-02-05T09:28:34.972Z,969.82
2023-02-05T09:29:34.952Z,969.81
2023-02-05T09:30:34.995Z,969.82
2023-02-05T09:31:35.054Z,969.81
2023-02-05T09:32:34.895Z,969.83
2023-02-05T09:33:34.877Z,969.82
2023-02-05T09:34:34.874Z,969.85
2023-02-05T09:35:35.158Z,969.81
2023-02-05T09:36:34.824Z,969.85
2023-02-05T09:37:34.797Z,969.85
2023-02-05T09:38:34.777Z,969.83
2023-02-05T09:40:17.535Z,969.84
2023-02-05T09:40:34.739Z,969.81
2023-02-05T09:41:34.867Z,969.8
2023-02-05T09:42:34.763Z,969.79
2023-02-05T09:43:34.680Z,969.79
2023-02-05T09:44:34.659Z,969.79
2023-02-05T09:45:36.774Z,969.81
2023-02-05T09:46:34.620Z,969.84
2023-02-05T09:47:34.604Z,969.84
2023-02-05T09:48:34.584Z,969.81
2023-02-05T09:49:34.577Z,969.85
2023-02-05T09:50:34.556Z,969.84
2023-02-05T09:51:34.547Z,969.78
2023-02-05T09:52:34.506Z,969.84
2023-02-05T09:53:34.486Z,969.82
2023-02-05T09:54:34.468Z,969.8
2023-02-05T09:55:34.764Z,969.8
2023-02-05T09:56:36.456Z,969.8
2023-02-05T09:57:34.438Z,969.71
2023-02-05T09:58:34.390Z,969.74
2023-02-05T09:59:34.366Z,969.75
2023-02-05T10:00:34.350Z,969.72
2023-02-05T10:01:34.391Z,969.72
2023-02-05T10:02:34.314Z,969.7
2023-02-05T10:03:34.302Z,969.69
2023-02-05T10:04:34.294Z,969.73
2023-02-05T10:05:34.521Z,969.69
2023-02-05T10:06:34.233Z,969.69
2023-02-05T10:07:34.211Z,969.72
2023-02-05T10:08:36.190Z,969.73
2023-02-05T10:09:34.175Z,969.74
2023-02-05T10:10:34.158Z,969.74
2023-02-05T10:11:34.134Z,969.75
2023-02-05T10:12:34.114Z,969.76
2023-02-05T10:13:34.167Z,969.75
2023-02-05T10:14:34.118Z,969.75
2023-02-05T10:15:34.407Z,969.73
2023-02-05T10:16:34.081Z,969.72
2023-02-05T10:17:34.060Z,969.71
2023-02-05T10:18:34.042Z,969.7
2023-02-05T10:19:34.018Z,969.7
2023-02-05T10:20:34.012Z,969.71
2023-02-05T10:21:33.982Z,969.74
2023-02-05T10:22:33.966Z,969.73
2023-02-05T10:23:33.945Z,969.73
2023-02-05T10:24:33.928Z,969.83
2023-02-05T10:25:34.174Z,969.84
2023-02-05T10:26:33.889Z,969.83
2023-02-05T10:27:33.867Z,969.86
2023-02-05T10:28:33.850Z,969.85
2023-02-05T10:29:33.857Z,969.84
2023-02-05T10:30:33.902Z,969.79
2023-02-05T10:31:35.980Z,969.78
2023-02-05T10:32:33.777Z,969.74
2023-02-05T10:33:33.755Z,969.72
2023-02-05T10:34:33.738Z,969.71
2023-02-05T10:35:33.975Z,969.72
2023-02-05T10:36:33.701Z,969.65
2023-02-05T10:37:33.681Z,969.69
2023-02-05T10:38:33.675Z,969.64
2023-02-05T10:39:33.643Z,969.67
2023-02-05T10:40:33.889Z,969.6
2023-02-05T10:41:33.615Z,969.59
2023-02-05T10:42:33.584Z,969.6
2023-02-05T10:43:33.566Z,969.6
2023-02-05T10:44:33.549Z,969.62
2023-02-05T10:45:33.929Z,969.56
2023-02-05T10:46:33.589Z,969.56
2023-02-05T10:47:33.491Z,969.54
2023-02-05T10:48:33.467Z,969.53
2023-02-05T10:49:33.453Z,969.54
2023-02-05T10:50:33.798Z,969.59
2023-02-05T10:51:33.412Z,969.52
2023-02-05T10:52:33.397Z,969.51
2023-02-05T10:53:33.502Z,969.53
2023-02-05T10:54:33.482Z,969.46
2023-02-05T10:55:33.753Z,969.44
2023-02-05T10:56:33.439Z,969.44
2023-02-05T10:57:33.424Z,969.36
2023-02-05T10:58:33.406Z,969.38
2023-02-05T10:59:33.390Z,969.35
2023-02-05T11:00:33.694Z,969.34
2023-02-05T11:01:33.376Z,969.34
2023-02-05T11:02:33.343Z,969.32
2023-02-05T11:03:33.317Z,969.33
2023-02-05T11:04:33.292Z,969.23
2023-02-05T11:05:33.276Z,969.27
2023-02-05T11:06:33.252Z,969.25
2023-02-05T11:07:33.241Z,969.25
2023-02-05T11:08:33.216Z,969.19
2023-02-05T11:09:33.198Z,969.2
2023-02-05T11:10:33.521Z,969.21
2023-02-05T11:11:33.159Z,969.19
2023-02-05T11:12:33.139Z,969.14
2023-02-05T11:13:33.125Z,969.13
2023-02-05T11:14:33.100Z,969.14
2023-02-05T11:15:33.084Z,969.13
2023-02-05T11:16:33.064Z,969.12
2023-02-05T11:17:33.108Z,969.06
2023-02-05T11:18:33.034Z,969.08
2023-02-05T11:19:33.009Z,969.08
2023-02-05T11:20:33.163Z,969.07
2023-02-05T11:21:32.975Z,969.07
2023-02-05T11:22:32.952Z,969.02
2023-02-05T11:23:32.937Z,968.98
2023-02-05T11:24:32.916Z,969
2023-02-05T11:25:32.900Z,969.03
2023-02-05T11:26:32.880Z,969.02
2023-02-05T11:27:32.870Z,968.98
2023-02-05T11:28:32.845Z,969
2023-02-05T11:29:32.825Z,968.99
2023-02-05T11:30:49.914Z,969.03
2023-02-05T11:31:32.832Z,969.04
2023-02-05T11:32:32.781Z,969.03
2023-02-05T11:33:32.776Z,969.08
2023-02-05T11:34:32.736Z,969.06
2023-02-05T11:35:32.877Z,969.07
2023-02-05T11:36:32.852Z,969.06
2023-02-05T11:37:32.832Z,969.11
2023-02-05T11:38:32.822Z,969.09
2023-02-05T11:39:32.797Z,969.09
2023-02-05T11:40:33.096Z,969.09
2023-02-05T11:41:32.760Z,969.11
2023-02-05T11:42:32.741Z,969.1
2023-02-05T11:43:32.724Z,969.09
2023-02-05T11:44:32.705Z,969.05
2023-02-05T11:45:32.687Z,969.04
2023-02-05T11:46:32.715Z,969.04
2023-02-05T11:47:32.649Z,969.1
2023-02-05T11:48:32.632Z,969.06
2023-02-05T11:49:32.641Z,969.1
2023-02-05T11:50:32.968Z,969.12
2023-02-05T11:51:32.578Z,969.08
2023-02-05T11:52:32.558Z,969.05
2023-02-05T11:53:32.540Z,969.11
2023-02-05T11:54:32.555Z,969.11
2023-02-05T11:55:32.504Z,969.07
2023-02-05T11:56:32.492Z,969.08
2023-02-05T11:57:32.468Z,969.06
2023-02-05T11:58:36.775Z,969.04
2023-02-05T11:59:32.456Z,969
2023-02-05T12:00:32.725Z,969
2023-02-05T12:01:32.465Z,968.98
2023-02-05T12:02:32.381Z,968.94
2023-02-05T12:03:32.364Z,968.93
2023-02-05T12:04:32.363Z,968.94
2023-02-05T12:05:32.357Z,968.95
2023-02-05T12:06:32.307Z,968.92
2023-02-05T12:07:32.287Z,968.93
2023-02-05T12:08:32.275Z,968.91
2023-02-05T12:09:32.251Z,968.93
2023-02-05T12:10:32.413Z,968.93
2023-02-05T12:11:32.216Z,968.86
2023-02-05T12:12:32.200Z,968.89
2023-02-05T12:13:32.181Z,968.87
2023-02-05T12:14:32.172Z,968.86
2023-02-05T12:15:32.143Z,968.86
2023-02-05T12:16:32.208Z,968.87
2023-02-05T12:17:32.110Z,968.83
2023-02-05T12:18:32.093Z,968.8
2023-02-05T12:19:32.070Z,968.81
2023-02-05T12:20:32.253Z,968.85
2023-02-05T12:21:32.189Z,968.85
2023-02-05T12:22:32.017Z,968.81
2023-02-05T12:23:32.011Z,968.84
2023-02-05T12:24:31.983Z,968.81
2023-02-05T12:25:32.453Z,968.81
2023-02-05T12:26:31.945Z,968.77
2023-02-05T12:27:31.930Z,968.8
2023-02-05T12:28:31.924Z,968.76
2023-02-05T12:29:31.893Z,968.79
2023-02-05T12:30:31.881Z,968.78
2023-02-05T12:31:31.900Z,968.79
2023-02-05T12:32:31.832Z,968.79
2023-02-05T12:33:31.815Z,968.76
2023-02-05T12:34:31.796Z,968.77
2023-02-05T12:35:31.906Z,968.75
2023-02-05T12:36:31.779Z,968.74
2023-02-05T12:37:31.770Z,968.77
2023-02-05T12:38:32.813Z,968.76
2023-02-05T12:39:31.706Z,968.74
2023-02-05T12:40:31.685Z,968.76
2023-02-05T12:41:31.672Z,968.75
2023-02-05T12:42:31.659Z,968.71
2023-02-05T12:43:31.637Z,968.74
2023-02-05T12:44:32.265Z,968.68
2023-02-05T12:45:31.681Z,968.74
2023-02-05T12:46:31.579Z,968.74
2023-02-05T12:47:31.562Z,968.73
2023-02-05T12:48:31.569Z,968.78